Time;durP1;ratioP1;P1;durP2;ratioP2;P2;SDS_P1;SDS_P2;PMS_P1;PMS_P2;Temp;Humidity;BMP_temperature;BMP_pressure;BME280_temperature;BME280_humidity;BME280_pressure;Samples;Min_cycle;Max_cycle;Signal;HPM_P1;HPM_P2
2024/03/18 00:02:27;;;;;;;7.65;6.25;;;14.60;78.50;;;;;;4970401;28;20031;-37
2024/03/18 00:04:54;;;;;;;7.63;6.40;;;14.60;78.50;;;;;;4979785;28;20023;-38
2024/03/18 00:07:20;;;;;;;7.10;6.03;;;14.60;78.50;;;;;;4977114;28;20109;-35
2024/03/18 00:09:47;;;;;;;7.20;6.30;;;14.60;78.60;;;;;;4968572;28;20041;-38
2024/03/18 00:12:12;;;;;;;7.20;5.63;;;14.60;78.60;;;;;;4958634;28;20034;-33
2024/03/18 00:14:38;;;;;;;7.40;6.10;;;14.60;78.60;;;;;;4971445;28;20437;-35
2024/03/18 00:17:07;;;;;;;7.20;6.07;;;14.60;78.60;;;;;;4975231;28;20041;-37
2024/03/18 00:19:33;;;;;;;6.78;5.85;;;14.60;78.60;;;;;;4975249;28;20018;-37
2024/03/18 00:21:59;;;;;;;7.20;6.13;;;14.60;78.60;;;;;;4972455;28;20081;-38
2024/03/18 00:24:25;;;;;;;7.15;5.95;;;14.60;78.60;;;;;;4955176;28;20028;-35
2024/03/18 00:26:50;;;;;;;6.28;5.43;;;14.60;78.60;;;;;;4968870;28;20491;-36
2024/03/18 00:29:16;;;;;;;7.28;5.95;;;14.50;78.50;;;;;;4978762;28;20031;-35
2024/03/18 00:31:42;;;;;;;6.75;5.40;;;14.50;78.60;;;;;;4964085;28;20037;-35
2024/03/18 00:34:07;;;;;;;7.45;5.93;;;14.50;79.30;;;;;;4971972;28;20050;-34
2024/03/18 00:36:34;;;;;;;7.05;5.50;;;14.50;78.60;;;;;;4954047;28;20030;-35
2024/03/18 00:39:00;;;;;;;7.45;5.80;;;14.50;78.60;;;;;;4967779;28;20079;-33
2024/03/18 00:44:09;;;;;;;6.45;5.70;;;14.50;78.60;;;;;;4967115;28;20035;-34
2024/03/18 00:46:36;;;;;;;7.50;5.38;;;14.50;78.60;;;;;;4968550;28;20037;-33
2024/03/18 00:49:02;;;;;;;5.80;5.03;;;14.50;78.60;;;;;;4976839;28;20030;-38
2024/03/18 00:51:28;;;;;;;6.78;5.35;;;14.50;78.60;;;;;;4974973;28;20163;-34
2024/03/18 00:53:54;;;;;;;7.18;6.03;;;14.50;78.70;;;;;;4972236;28;20121;-36
2024/03/18 00:56:19;;;;;;;7.15;5.68;;;14.50;78.60;;;;;;4965340;28;20077;-40
2024/03/18 00:58:45;;;;;;;6.38;5.32;;;14.50;78.70;;;;;;4967675;28;20371;-38
2024/03/18 01:01:11;;;;;;;6.75;5.30;;;14.50;78.60;;;;;;4965962;28;20089;-41
2024/03/18 01:03:37;;;;;;;6.07;4.97;;;14.50;78.70;;;;;;4972983;28;20033;-39
2024/03/18 01:06:03;;;;;;;6.93;5.75;;;14.50;78.60;;;;;;4972421;28;20034;-34
2024/03/18 01:08:29;;;;;;;6.90;5.68;;;14.50;79.30;;;;;;4973856;28;20101;-34
2024/03/18 01:10:55;;;;;;;6.38;5.18;;;14.50;78.70;;;;;;4977886;28;20031;-39
2024/03/18 01:13:21;;;;;;;5.80;5.20;;;14.50;78.70;;;;;;4954444;28;20050;-37
2024/03/18 01:15:47;;;;;;;6.43;5.47;;;14.50;78.70;;;;;;4978659;28;20083;-38
2024/03/18 01:18:14;;;;;;;7.07;5.18;;;14.50;78.70;;;;;;4974875;28;20050;-37
2024/03/18 01:20:39;;;;;;;6.32;5.32;;;14.50;78.70;;;;;;4981671;28;20426;-37
2024/03/18 01:23:06;;;;;;;5.78;5.18;;;14.50;78.70;;;;;;4974400;28;20023;-36
2024/03/18 01:25:34;;;;;;;6.90;5.47;;;14.50;78.70;;;;;;4970717;28;20416;-36
2024/03/18 01:28:01;;;;;;;6.10;5.20;;;14.50;78.70;;;;;;4974677;28;20050;-37
2024/03/18 01:30:26;;;;;;;6.47;5.20;;;14.50;78.80;;;;;;4959407;28;20038;-35
2024/03/18 01:32:52;;;;;;;6.95;5.50;;;14.50;78.70;;;;;;4975282;28;20038;-35
2024/03/18 01:35:22;;;;;;;6.68;5.25;;;14.50;78.70;;;;;;4979026;28;20034;-37
2024/03/18 01:37:48;;;;;;;6.30;5.40;;;14.50;78.80;;;;;;4952227;28;20015;-34
2024/03/18 01:40:15;;;;;;;6.10;5.10;;;14.50;78.80;;;;;;4963479;28;20034;-39
2024/03/18 01:42:44;;;;;;;6.88;5.13;;;14.50;78.80;;;;;;4973864;28;20042;-34
2024/03/18 01:45:10;;;;;;;6.20;5.15;;;14.50;78.80;;;;;;4970787;28;20427;-35
2024/03/18 01:47:38;;;;;;;6.07;5.15;;;14.50;78.80;;;;;;4968581;28;20095;-35
2024/03/18 01:50:04;;;;;;;6.22;4.80;;;14.50;78.80;;;;;;4969160;28;20100;-36
2024/03/18 01:52:30;;;;;;;6.28;4.95;;;14.50;78.90;;;;;;4980619;28;20086;-39
2024/03/18 01:54:57;;;;;;;7.47;4.95;;;14.50;78.80;;;;;;4967805;28;20042;-38
2024/03/18 01:57:26;;;;;;;6.20;5.20;;;14.50;78.80;;;;;;4975314;28;20031;-38
2024/03/18 01:59:52;;;;;;;6.10;5.05;;;14.50;78.80;;;;;;4962477;28;20043;-39
2024/03/18 02:02:17;;;;;;;5.43;4.70;;;14.50;78.90;;;;;;4976105;28;20031;-34
2024/03/18 02:04:43;;;;;;;6.07;4.63;;;14.50;78.90;;;;;;4978534;28;20049;-38
2024/03/18 02:07:24;;;;;;;5.90;4.70;;;14.50;78.90;;;;;;4974935;28;20031;-37
2024/03/18 02:09:50;;;;;;;5.57;4.75;;;14.50;78.90;;;;;;4976662;28;20484;-37
2024/03/18 02:12:16;;;;;;;5.80;4.88;;;14.40;78.80;;;;;;4975699;28;20051;-38
2024/03/18 02:14:45;;;;;;;5.30;4.65;;;14.40;78.90;;;;;;4970815;28;20050;-33
2024/03/18 02:17:12;;;;;;;5.70;5.07;;;14.40;78.90;;;;;;4944102;28;20033;-36
2024/03/18 02:19:39;;;;;;;5.55;4.55;;;14.50;78.90;;;;;;4973065;28;20031;-38
2024/03/18 02:22:06;;;;;;;6.35;5.03;;;14.40;78.80;;;;;;4962590;28;20546;-38
2024/03/18 02:24:32;;;;;;;6.22;5.05;;;14.40;78.80;;;;;;4978009;28;20038;-36
2024/03/18 02:27:08;;;;;;;5.93;4.80;;;14.40;78.90;;;;;;4977608;28;20022;-35
2024/03/18 02:29:35;;;;;;;5.97;4.38;;;14.50;78.90;;;;;;4980451;28;20078;-37
2024/03/18 02:32:01;;;;;;;5.90;4.78;;;14.40;78.90;;;;;;4974534;28;20101;-35
2024/03/18 02:34:27;;;;;;;5.70;4.65;;;14.40;78.90;;;;;;4978410;28;20058;-37
2024/03/18 02:36:53;;;;;;;5.57;4.78;;;14.40;78.90;;;;;;4977464;28;20030;-37
2024/03/18 02:39:24;;;;;;;6.93;4.88;;;14.40;78.90;;;;;;4972293;28;20095;-34
2024/03/18 02:41:50;;;;;;;5.78;4.80;;;14.40;79.00;;;;;;4988147;28;20029;-35
2024/03/18 02:44:18;;;;;;;6.20;4.82;;;14.40;78.90;;;;;;4959207;28;20056;-40
2024/03/18 02:46:44;;;;;;;5.47;4.80;;;14.40;79.00;;;;;;4977117;28;20031;-39
2024/03/18 02:49:10;;;;;;;6.28;5.10;;;14.40;78.90;;;;;;4968133;28;20035;-33
2024/03/18 02:51:36;;;;;;;5.18;4.55;;;14.40;78.90;;;;;;4986567;28;20033;-39
2024/03/18 02:54:02;;;;;;;6.13;5.15;;;14.40;79.00;;;;;;4973137;28;20547;-41
2024/03/18 02:56:27;;;;;;;6.03;5.07;;;14.40;79.00;;;;;;4980663;28;20034;-39
2024/03/18 02:58:54;;;;;;;5.85;5.00;;;14.40;79.00;;;;;;4957530;28;20031;-39
2024/03/18 03:01:25;;;;;;;5.88;4.78;;;14.40;78.90;;;;;;4979322;28;20031;-41
2024/03/18 03:03:57;;;;;;;6.40;5.45;;;14.40;79.00;;;;;;4960697;28;20023;-37
2024/03/18 03:06:23;;;;;;;6.60;5.18;;;14.40;79.00;;;;;;4969530;28;20033;-36
2024/03/18 03:08:49;;;;;;;6.07;4.93;;;14.40;79.00;;;;;;4975875;28;20031;-40
2024/03/18 03:11:15;;;;;;;6.28;5.32;;;14.40;79.00;;;;;;4984080;28;20042;-38
2024/03/18 03:13:41;;;;;;;6.05;5.07;;;14.40;78.90;;;;;;4976636;28;20081;-39
2024/03/18 03:16:13;;;;;;;6.70;5.07;;;14.40;79.00;;;;;;4976113;28;20023;-36
2024/03/18 03:18:40;;;;;;;6.65;5.10;;;14.40;79.00;;;;;;4968650;28;20082;-39
2024/03/18 03:21:06;;;;;;;7.28;5.60;;;14.40;79.00;;;;;;4983678;28;20118;-39
2024/03/18 03:23:39;;;;;;;6.38;5.03;;;14.40;79.00;;;;;;4978937;28;20070;-40
2024/03/18 03:26:05;;;;;;;6.45;4.88;;;14.40;79.00;;;;;;4973423;28;20122;-41
2024/03/18 03:28:31;;;;;;;7.20;5.53;;;14.40;79.00;;;;;;4975697;28;20039;-40
2024/03/18 03:31:05;;;;;;;6.35;5.13;;;14.40;79.00;;;;;;4984166;28;20186;-40
2024/03/18 03:33:33;;;;;;;5.93;4.90;;;14.40;79.10;;;;;;4977680;28;20026;-40
2024/03/18 03:35:59;;;;;;;6.25;5.10;;;14.40;79.10;;;;;;4965906;28;20027;-39
2024/03/18 03:38:25;;;;;;;6.78;5.30;;;14.40;79.10;;;;;;4967075;28;20031;-39
2024/03/18 03:40:52;;;;;;;6.00;5.05;;;14.40;79.10;;;;;;4976564;28;20426;-41
2024/03/18 03:43:18;;;;;;;6.22;5.28;;;14.40;79.10;;;;;;4974814;28;20035;-38
2024/03/18 03:45:54;;;;;;;7.05;5.70;;;14.40;79.10;;;;;;4957419;28;20035;-39
2024/03/18 03:48:20;;;;;;;5.72;5.10;;;14.40;79.20;;;;;;4973651;28;20055;-40
2024/03/18 03:50:46;;;;;;;6.88;5.75;;;14.40;79.10;;;;;;4961589;28;20034;-40
2024/03/18 03:53:11;;;;;;;7.32;5.70;;;14.40;79.20;;;;;;4966711;28;20441;-40
2024/03/18 03:55:38;;;;;;;6.85;5.75;;;14.40;79.20;;;;;;4976297;28;20117;-41
2024/03/18 03:58:04;;;;;;;7.22;5.45;;;14.40;79.20;;;;;;4968340;28;20034;-40
2024/03/18 04:00:31;;;;;;;7.13;6.20;;;14.40;79.20;;;;;;4967981;28;20070;-40
2024/03/18 04:02:58;;;;;;;7.50;5.75;;;14.40;79.20;;;;;;4978780;28;20581;-38
2024/03/18 04:05:23;;;;;;;6.55;5.72;;;14.40;79.10;;;;;;4973001;28;20031;-40
2024/03/18 04:07:50;;;;;;;6.93;5.43;;;14.40;79.20;;;;;;4949129;28;20046;-37
2024/03/18 04:10:16;;;;;;;7.47;5.53;;;14.40;79.20;;;;;;4972419;28;20054;-41
2024/03/18 04:12:43;;;;;;;6.75;5.88;;;14.40;79.20;;;;;;4965852;28;20039;-40
2024/03/18 04:15:11;;;;;;;7.18;6.07;;;14.40;79.20;;;;;;4965892;28;20033;-38
2024/03/18 04:17:37;;;;;;;7.47;6.00;;;14.40;79.10;;;;;;4973652;28;20086;-39
2024/03/18 04:20:18;;;;;;;6.50;5.45;;;14.40;79.20;;;;;;4964782;28;20023;-41
2024/03/18 04:22:47;;;;;;;7.47;5.93;;;14.40;79.20;;;;;;4975872;28;20101;-42
2024/03/18 04:25:13;;;;;;;7.03;6.20;;;14.40;79.20;;;;;;4966071;28;20042;-39
2024/03/18 04:27:40;;;;;;;7.50;6.32;;;14.40;79.20;;;;;;4965795;28;20022;-39
2024/03/18 04:30:06;;;;;;;7.43;5.65;;;14.40;79.20;;;;;;4976811;28;20599;-39
2024/03/18 04:32:32;;;;;;;6.80;5.75;;;14.40;79.20;;;;;;4964066;28;20038;-37
2024/03/18 04:34:58;;;;;;;7.38;6.22;;;14.40;79.20;;;;;;4974738;28;20034;-40
2024/03/18 04:37:23;;;;;;;7.75;6.03;;;14.40;79.20;;;;;;4976174;28;20030;-40
2024/03/18 04:39:49;;;;;;;7.03;5.85;;;14.40;79.20;;;;;;4991366;28;20026;-37
2024/03/18 04:42:15;;;;;;;7.43;6.47;;;14.40;79.20;;;;;;4977900;28;20121;-40
2024/03/18 04:44:40;;;;;;;7.60;6.32;;;14.40;79.20;;;;;;4949027;28;20034;-37
2024/03/18 04:47:06;;;;;;;7.25;6.55;;;14.40;79.20;;;;;;4976133;28;20019;-38
2024/03/18 04:49:32;;;;;;;6.97;6.13;;;14.40;79.20;;;;;;4968086;28;20134;-38
2024/03/18 04:51:58;;;;;;;7.95;6.63;;;14.40;79.20;;;;;;4974716;28;20037;-38
2024/03/18 04:54:23;;;;;;;7.70;6.10;;;14.40;79.20;;;;;;4967194;28;20031;-40
2024/03/18 04:56:49;;;;;;;7.50;6.55;;;14.40;79.20;;;;;;4968804;28;20130;-36
2024/03/18 04:59:15;;;;;;;7.55;6.45;;;14.40;79.20;;;;;;4975273;28;20045;-37
2024/03/18 05:01:41;;;;;;;7.80;6.63;;;14.40;79.10;;;;;;4976417;28;20055;-40
2024/03/18 05:04:06;;;;;;;7.88;6.35;;;14.40;79.20;;;;;;4965879;28;20019;-37
2024/03/18 05:06:32;;;;;;;7.13;6.20;;;14.40;79.20;;;;;;4970404;28;20019;-40
2024/03/18 05:08:58;;;;;;;7.30;6.50;;;14.40;79.20;;;;;;4967974;28;20411;-40
2024/03/18 05:11:24;;;;;;;7.60;6.38;;;14.40;79.20;;;;;;4973407;28;20023;-39
2024/03/18 05:13:49;;;;;;;6.90;5.85;;;14.40;79.20;;;;;;4970287;28;20046;-39
2024/03/18 05:16:15;;;;;;;7.68;6.57;;;14.40;79.20;;;;;;4977718;28;20058;-40
2024/03/18 05:18:41;;;;;;;7.07;6.30;;;14.40;79.20;;;;;;4979391;28;20660;-39
2024/03/18 05:21:07;;;;;;;9.23;6.70;;;14.50;79.20;;;;;;4977190;28;20026;-39
2024/03/18 05:23:32;;;;;;;8.00;6.63;;;14.40;79.20;;;;;;4978302;28;20019;-41
2024/03/18 05:25:58;;;;;;;7.10;6.13;;;14.40;79.20;;;;;;4952130;28;20030;-41
2024/03/18 05:28:24;;;;;;;7.40;6.00;;;14.40;79.20;;;;;;4973671;28;20035;-39
2024/03/18 05:30:49;;;;;;;8.30;6.68;;;14.40;79.20;;;;;;4973638;28;20023;-39
2024/03/18 05:33:15;;;;;;;8.13;6.40;;;14.40;79.20;;;;;;4975021;28;20054;-41
2024/03/18 05:35:41;;;;;;;7.53;6.40;;;14.40;79.20;;;;;;4973796;28;20426;-40
2024/03/18 05:38:06;;;;;;;7.40;5.97;;;14.40;79.20;;;;;;4966857;28;20705;-40
2024/03/18 05:40:34;;;;;;;8.00;6.50;;;14.40;79.20;;;;;;4973780;28;20058;-40
2024/03/18 05:43:00;;;;;;;7.97;6.00;;;14.40;79.20;;;;;;4978967;28;20698;-41
2024/03/18 05:45:26;;;;;;;6.85;6.00;;;14.40;79.20;;;;;;4975363;28;20035;-40
2024/03/18 05:47:51;;;;;;;7.75;6.80;;;14.40;79.80;;;;;;4974860;28;20041;-39
2024/03/18 05:50:17;;;;;;;7.45;6.35;;;14.40;79.20;;;;;;4963285;28;20051;-40
2024/03/18 05:52:43;;;;;;;8.07;6.82;;;14.40;79.20;;;;;;4976301;28;20022;-41
2024/03/18 05:55:09;;;;;;;8.23;6.72;;;14.40;79.20;;;;;;4972991;28;20035;-41
2024/03/18 05:57:34;;;;;;;7.35;6.22;;;14.40;79.30;;;;;;4976726;28;20035;-39
2024/03/18 06:00:00;;;;;;;7.15;6.15;;;14.40;79.30;;;;;;4975316;28;20570;-42
2024/03/18 06:02:26;;;;;;;8.10;6.40;;;14.40;79.30;;;;;;4985439;28;20024;-39
2024/03/18 06:04:52;;;;;;;8.85;6.88;;;14.40;79.30;;;;;;4981644;28;20027;-41
2024/03/18 06:07:21;;;;;;;7.25;6.35;;;14.40;79.30;;;;;;4980680;28;20503;-39
2024/03/18 06:09:47;;;;;;;7.40;6.57;;;14.40;79.30;;;;;;4952669;28;20066;-39
2024/03/18 06:12:12;;;;;;;7.43;6.53;;;14.40;79.30;;;;;;4969451;28;20031;-40
2024/03/18 06:14:38;;;;;;;7.40;6.40;;;14.40;79.30;;;;;;4971773;28;20030;-41
2024/03/18 06:17:04;;;;;;;8.07;6.47;;;14.40;79.30;;;;;;4973781;28;20026;-40
2024/03/18 06:19:33;;;;;;;8.23;7.22;;;14.40;79.30;;;;;;4977441;28;20083;-41
2024/03/18 06:22:05;;;;;;;7.93;6.65;;;14.40;79.30;;;;;;4973446;28;20086;-37
2024/03/18 06:25:54;;;;;;;7.90;6.43;;;14.40;79.40;;;;;;4981451;28;20471;-37
2024/03/18 06:27:17;;;;;;;7.45;6.60;;;14.40;79.40;;;;;;4978760;28;20031;-38
2024/03/18 06:29:43;;;;;;;7.80;6.45;;;14.40;79.50;;;;;;4983210;28;20965;-41
2024/03/18 06:32:10;;;;;;;7.35;6.45;;;14.30;79.40;;;;;;4978385;28;20117;-41
2024/03/18 06:34:35;;;;;;;7.82;6.82;;;14.40;79.50;;;;;;4975565;28;20081;-35
2024/03/18 06:37:01;;;;;;;7.78;6.38;;;14.40;79.50;;;;;;4972405;28;20043;-38
2024/03/18 06:39:27;;;;;;;7.60;6.20;;;14.30;79.40;;;;;;4979300;28;20038;-40
2024/03/18 06:41:52;;;;;;;7.97;6.65;;;14.30;79.40;;;;;;4980514;28;20019;-37
2024/03/18 06:44:18;;;;;;;8.50;6.88;;;14.30;79.40;;;;;;4977506;28;20034;-41
2024/03/18 06:46:44;;;;;;;8.63;6.78;;;14.40;79.50;;;;;;4975791;28;20023;-40
2024/03/18 06:49:10;;;;;;;8.02;6.95;;;14.40;79.50;;;;;;4966129;28;20023;-39
2024/03/18 06:51:36;;;;;;;7.63;6.47;;;14.40;79.50;;;;;;4963421;28;20046;-39
2024/03/18 06:54:01;;;;;;;7.85;6.85;;;14.40;79.50;;;;;;4982196;28;20054;-40
2024/03/18 06:56:27;;;;;;;9.48;8.00;;;14.40;79.50;;;;;;4978799;28;20022;-38
2024/03/18 06:58:53;;;;;;;8.90;7.47;;;14.40;79.50;;;;;;4979036;28;20034;-41
2024/03/18 07:01:18;;;;;;;9.25;7.22;;;14.40;79.60;;;;;;4966258;28;20042;-38
2024/03/18 07:03:44;;;;;;;7.75;6.68;;;14.40;79.60;;;;;;4982421;28;20023;-40
2024/03/18 07:06:12;;;;;;;8.43;6.97;;;14.40;79.60;;;;;;4969688;28;20055;-40
2024/03/18 07:08:38;;;;;;;8.38;7.20;;;14.40;79.50;;;;;;4972401;28;20019;-39
2024/03/18 07:11:04;;;;;;;8.27;6.97;;;14.40;79.50;;;;;;4967774;28;20031;-41
2024/03/18 07:13:29;;;;;;;8.52;6.80;;;14.40;79.50;;;;;;4966810;28;20063;-41
2024/03/18 07:15:55;;;;;;;8.50;7.22;;;14.40;79.50;;;;;;4971258;28;20043;-39
2024/03/18 07:18:21;;;;;;;9.23;7.22;;;14.40;79.50;;;;;;4973161;28;20027;-39
2024/03/18 07:20:47;;;;;;;8.98;7.53;;;14.40;79.50;;;;;;4984224;28;20109;-37
2024/03/18 07:23:13;;;;;;;8.65;6.90;;;14.40;79.50;;;;;;4970655;28;20069;-40
2024/03/18 07:25:39;;;;;;;8.88;7.50;;;14.40;79.50;;;;;;4977857;28;20098;-40
2024/03/18 07:28:05;;;;;;;8.68;7.57;;;14.40;79.50;;;;;;4970827;28;20031;-40
2024/03/18 07:30:31;;;;;;;8.95;7.40;;;14.50;79.50;;;;;;4960263;28;20103;-41
2024/03/18 07:32:56;;;;;;;8.88;7.43;;;14.40;79.50;;;;;;4973463;28;20035;-38
2024/03/18 07:35:22;;;;;;;9.23;7.57;;;14.50;79.50;;;;;;4976874;28;20054;-38
2024/03/18 07:37:48;;;;;;;9.02;7.68;;;14.50;79.50;;;;;;4968725;28;20027;-40
2024/03/18 07:40:14;;;;;;;9.80;7.95;;;14.50;79.50;;;;;;4960901;28;20054;-40
2024/03/18 07:42:40;;;;;;;8.63;6.97;;;14.50;79.60;;;;;;4983195;28;20498;-39
2024/03/18 07:45:07;;;;;;;9.43;7.80;;;14.50;79.50;;;;;;4979391;28;20031;-41
2024/03/18 07:47:34;;;;;;;9.52;7.93;;;14.50;79.50;;;;;;4979544;28;20022;-38
2024/03/18 07:50:04;;;;;;;9.68;7.60;;;14.50;79.50;;;;;;4980351;28;20043;-40
2024/03/18 07:52:30;;;;;;;10.35;8.00;;;14.50;79.50;;;;;;4979003;28;20023;-40
2024/03/18 07:54:58;;;;;;;9.43;7.60;;;14.50;79.50;;;;;;4978216;28;20513;-41
2024/03/18 07:57:24;;;;;;;10.30;8.50;;;14.50;79.50;;;;;;4972509;28;20529;-41
2024/03/18 07:59:50;;;;;;;9.95;8.07;;;14.50;79.50;;;;;;4972764;28;20035;-40
2024/03/18 08:02:15;;;;;;;9.75;7.72;;;14.60;80.20;;;;;;4981887;28;20023;-41
2024/03/18 08:04:41;;;;;;;8.52;6.93;;;14.60;79.50;;;;;;4967669;28;20196;-42
2024/03/18 08:07:07;;;;;;;9.63;7.97;;;14.50;79.50;;;;;;4977556;28;20023;-35
2024/03/18 08:09:32;;;;;;;9.45;7.72;;;14.50;79.50;;;;;;4978380;28;20045;-37
2024/03/18 08:11:58;;;;;;;8.90;7.95;;;14.50;79.50;;;;;;4981906;28;20109;-38
2024/03/18 08:14:24;;;;;;;9.20;7.72;;;14.60;79.50;;;;;;4985212;28;20094;-37
2024/03/18 08:16:49;;;;;;;9.80;8.05;;;14.60;79.50;;;;;;4981021;28;20179;-35
2024/03/18 08:19:15;;;;;;;8.93;7.47;;;14.50;79.50;;;;;;4969266;28;20066;-37
2024/03/18 08:21:41;;;;;;;9.52;7.93;;;14.60;79.50;;;;;;4977170;28;20217;-35
2024/03/18 08:24:07;;;;;;;10.10;8.10;;;14.60;79.50;;;;;;4975823;28;20031;-36
2024/03/18 08:26:32;;;;;;;9.52;7.57;;;14.60;79.50;;;;;;4974817;28;20027;-39
2024/03/18 08:29:01;;;;;;;9.68;7.78;;;14.50;79.50;;;;;;4978897;28;20373;-36
2024/03/18 08:31:27;;;;;;;8.88;7.43;;;14.60;79.50;;;;;;4987998;28;20374;-36
2024/03/18 08:33:56;;;;;;;9.27;8.13;;;14.60;79.50;;;;;;4977049;28;20042;-36
2024/03/18 08:36:22;;;;;;;10.82;8.30;;;14.60;79.50;;;;;;4963824;28;20437;-38
2024/03/18 08:38:49;;;;;;;10.52;8.48;;;14.60;79.50;;;;;;4961338;28;20058;-32
2024/03/18 08:41:15;;;;;;;10.65;8.40;;;14.60;79.50;;;;;;4969362;28;20031;-35
2024/03/18 08:43:40;;;;;;;9.93;8.43;;;14.60;79.50;;;;;;4978992;28;20062;-38
2024/03/18 08:46:07;;;;;;;10.13;8.60;;;14.70;79.50;;;;;;4964840;28;20063;-33
2024/03/18 08:48:34;;;;;;;10.90;9.13;;;14.70;79.50;;;;;;4970960;28;20058;-38
2024/03/18 08:51:00;;;;;;;10.70;8.93;;;14.70;79.50;;;;;;4977747;28;20050;-37
2024/03/18 08:53:26;;;;;;;11.13;8.90;;;14.70;80.10;;;;;;4959977;28;20039;-37
2024/03/18 08:55:52;;;;;;;10.77;8.65;;;14.70;79.50;;;;;;4975096;28;20038;-36
2024/03/18 08:58:21;;;;;;;11.45;9.05;;;14.80;79.50;;;;;;4968766;28;20027;-39
2024/03/18 09:00:48;;;;;;;10.60;8.80;;;14.80;79.50;;;;;;4974108;28;20033;-41
2024/03/18 09:03:14;;;;;;;11.32;8.70;;;14.80;79.40;;;;;;4973869;28;20027;-42
2024/03/18 09:05:40;;;;;;;10.88;8.45;;;14.80;79.40;;;;;;4968650;28;20034;-42
2024/03/18 09:08:05;;;;;;;9.98;8.48;;;14.80;79.40;;;;;;4975219;28;20087;-42
2024/03/18 09:10:31;;;;;;;11.40;9.05;;;14.80;79.40;;;;;;4969740;28;20189;-35
2024/03/18 09:13:00;;;;;;;10.80;8.30;;;14.80;79.50;;;;;;4976000;28;20039;-35
2024/03/18 09:15:26;;;;;;;11.73;9.38;;;14.90;79.50;;;;;;4972034;28;20058;-37
2024/03/18 09:17:53;;;;;;;12.20;9.95;;;14.90;79.50;;;;;;4954696;28;20059;-36
2024/03/18 09:20:20;;;;;;;10.75;8.57;;;14.90;79.50;;;;;;4948939;28;20033;-36
2024/03/18 09:22:46;;;;;;;11.00;9.05;;;14.80;79.50;;;;;;4981135;28;20053;-37
2024/03/18 09:25:18;;;;;;;11.82;9.40;;;14.90;79.50;;;;;;4973133;28;20153;-38
2024/03/18 09:27:43;;;;;;;11.13;8.88;;;14.80;79.40;;;;;;4971640;28;20059;-35
2024/03/18 09:30:09;;;;;;;10.63;9.25;;;14.90;79.50;;;;;;4963374;28;20027;-35
2024/03/18 09:32:35;;;;;;;10.88;8.73;;;14.90;79.50;;;;;;4988399;28;20062;-35
2024/03/18 09:35:01;;;;;;;11.50;9.18;;;14.90;79.50;;;;;;4977605;28;20047;-33
2024/03/18 09:37:28;;;;;;;11.00;9.40;;;14.90;79.50;;;;;;4962830;28;20503;-37
2024/03/18 09:39:55;;;;;;;10.77;8.88;;;14.90;79.50;;;;;;4982059;28;20073;-36
2024/03/18 09:42:21;;;;;;;10.73;9.05;;;15.00;79.50;;;;;;4981506;28;20373;-37
2024/03/18 09:44:47;;;;;;;10.70;9.18;;;15.00;79.50;;;;;;4982818;28;20534;-34
2024/03/18 09:47:23;;;;;;;11.75;9.07;;;15.00;79.50;;;;;;4971265;28;20027;-36
2024/03/18 09:49:50;;;;;;;11.10;8.73;;;15.00;79.50;;;;;;4973423;28;20057;-37
2024/03/18 09:52:17;;;;;;;11.82;9.15;;;15.00;79.50;;;;;;4955175;28;20035;-37
2024/03/18 09:54:45;;;;;;;11.95;9.63;;;14.90;79.40;;;;;;4968870;28;20038;-33
2024/03/18 09:57:17;;;;;;;12.98;9.48;;;15.00;79.50;;;;;;4971139;28;20039;-34
2024/03/18 09:59:44;;;;;;;11.30;9.45;;;15.00;79.40;;;;;;4970332;28;20050;-35
2024/03/18 10:02:17;;;;;;;11.45;9.02;;;15.00;79.40;;;;;;4980898;28;20023;-35
2024/03/18 10:04:44;;;;;;;12.20;9.52;;;15.10;79.50;;;;;;4982836;28;20019;-37
2024/03/18 10:07:15;;;;;;;11.52;8.68;;;15.00;79.40;;;;;;4964010;28;20027;-33
2024/03/18 10:09:43;;;;;;;10.10;8.85;;;15.10;79.40;;;;;;4977447;28;20052;-36
2024/03/18 10:12:16;;;;;;;11.73;9.50;;;15.10;79.40;;;;;;4986632;28;20045;-36
2024/03/18 10:14:43;;;;;;;11.50;8.88;;;15.10;79.40;;;;;;4971549;28;20070;-37
2024/03/18 10:17:18;;;;;;;11.57;8.98;;;15.10;79.30;;;;;;4975176;28;20041;-36
2024/03/18 10:19:44;;;;;;;11.45;8.88;;;15.10;79.30;;;;;;4977676;28;20026;-37
2024/03/18 10:22:11;;;;;;;10.48;8.55;;;15.10;79.30;;;;;;4979172;28;20031;-35
2024/03/18 10:24:41;;;;;;;10.52;8.95;;;15.20;79.40;;;;;;4976356;28;20429;-34
2024/03/18 10:27:11;;;;;;;11.10;9.15;;;15.20;79.40;;;;;;4978332;28;20109;-34
2024/03/18 10:29:40;;;;;;;10.88;8.68;;;15.20;79.30;;;;;;4982492;28;20051;-36
2024/03/18 10:32:23;;;;;;;11.90;9.48;;;15.20;79.20;;;;;;4989556;28;20022;-35
2024/03/18 10:34:51;;;;;;;11.85;9.32;;;15.30;79.30;;;;;;4983460;28;20062;-37
2024/03/18 10:37:22;;;;;;;11.63;9.43;;;15.30;79.30;;;;;;4985461;28;20031;-31
2024/03/18 10:39:56;;;;;;;10.27;9.10;;;15.30;79.30;;;;;;4981491;28;20054;-36
2024/03/18 10:42:28;;;;;;;11.77;9.55;;;15.30;79.20;;;;;;4991225;28;20022;-34
2024/03/18 10:45:19;;;;;;;10.93;8.40;;;15.40;79.20;;;;;;4973913;28;20119;-37
2024/03/18 10:47:45;;;;;;;10.20;8.57;;;15.40;79.20;;;;;;4961391;28;20041;-37
2024/03/18 10:50:15;;;;;;;12.05;9.15;;;15.40;79.10;;;;;;4970740;28;20047;-35
2024/03/18 10:52:43;;;;;;;10.13;8.35;;;15.40;79.10;;;;;;4969409;28;20515;-34
2024/03/18 10:55:16;;;;;;;11.82;9.07;;;15.50;79.10;;;;;;4970034;28;20031;-34
2024/03/18 10:57:47;;;;;;;11.45;8.95;;;15.50;79.10;;;;;;4974883;28;20051;-36
2024/03/18 11:00:18;;;;;;;10.27;8.63;;;15.50;79.00;;;;;;4951496;28;20023;-36
2024/03/18 11:03:14;;;;;;;11.57;8.32;;;15.60;79.10;;;;;;4964722;28;20590;-34
2024/03/18 11:05:54;;;;;;;10.50;8.30;;;15.60;79.10;;;;;;4964017;28;20067;-35
2024/03/18 11:08:21;;;;;;;9.77;8.05;;;15.60;79.00;;;;;;4968626;28;20373;-36
2024/03/18 11:10:49;;;;;;;9.18;7.88;;;15.60;79.00;;;;;;4972655;28;20037;-36
2024/03/18 11:13:19;;;;;;;11.23;8.98;;;15.70;79.00;;;;;;4983696;28;20035;-34
2024/03/18 11:15:48;;;;;;;11.30;9.20;;;15.70;79.00;;;;;;4977596;28;20049;-34
2024/03/18 11:18:21;;;;;;;10.32;8.00;;;15.70;79.00;;;;;;4979703;28;20073;-39
2024/03/18 11:20:58;;;;;;;11.10;8.38;;;15.70;79.00;;;;;;4975664;28;20090;-34
2024/03/18 11:23:27;;;;;;;10.82;8.70;;;15.80;79.00;;;;;;4944632;28;20940;-37
2024/03/18 11:26:05;;;;;;;11.38;8.52;;;15.70;78.90;;;;;;4975262;28;20033;-35
2024/03/18 11:28:39;;;;;;;11.93;8.15;;;15.80;79.00;;;;;;4960641;28;20035;-35
2024/03/18 11:31:09;;;;;;;11.70;8.43;;;15.80;79.00;;;;;;4982358;28;20069;-36
2024/03/18 11:33:36;;;;;;;10.63;8.50;;;15.80;78.90;;;;;;4964651;28;20574;-34
2024/03/18 11:36:04;;;;;;;11.18;8.90;;;15.80;78.90;;;;;;4975551;28;20023;-33
2024/03/18 11:38:30;;;;;;;10.40;7.93;;;15.80;79.00;;;;;;4956111;28;20062;-33
2024/03/18 11:40:56;;;;;;;10.73;8.20;;;15.80;79.00;;;;;;4968325;28;20046;-35
2024/03/18 11:43:21;;;;;;;11.40;8.50;;;15.80;79.00;;;;;;4980883;28;20042;-36
2024/03/18 11:45:48;;;;;;;11.18;9.25;;;15.90;79.00;;;;;;4978337;28;20031;-38
2024/03/18 11:48:16;;;;;;;10.95;8.43;;;15.90;78.90;;;;;;4967914;28;20022;-36
2024/03/18 11:50:44;;;;;;;11.38;8.63;;;15.90;78.90;;;;;;4973181;28;20368;-35
2024/03/18 11:53:10;;;;;;;10.73;8.55;;;15.90;78.90;;;;;;4973586;28;20047;-33
2024/03/18 11:55:42;;;;;;;11.30;8.48;;;15.90;78.90;;;;;;4964933;28;20023;-35
2024/03/18 11:58:12;;;;;;;11.52;8.40;;;16.00;79.00;;;;;;4969908;28;20039;-33
2024/03/18 12:00:38;;;;;;;9.95;7.97;;;16.00;78.90;;;;;;4967655;28;20032;-36
2024/03/18 12:03:11;;;;;;;12.35;8.88;;;16.00;78.90;;;;;;4978030;28;20098;-33
2024/03/18 12:05:40;;;;;;;11.35;8.35;;;16.10;79.00;;;;;;4978210;28;20045;-36
2024/03/18 12:08:09;;;;;;;12.02;8.52;;;16.10;79.00;;;;;;4981876;28;20117;-35
2024/03/18 12:10:36;;;;;;;11.15;8.48;;;16.10;79.60;;;;;;4975500;28;20033;-35
2024/03/18 12:13:03;;;;;;;12.13;8.40;;;16.10;78.90;;;;;;4977270;28;20042;-35
2024/03/18 12:15:29;;;;;;;10.57;8.18;;;16.20;79.00;;;;;;4963579;28;20031;-34
2024/03/18 12:17:57;;;;;;;10.20;8.02;;;16.20;79.00;;;;;;4960614;28;20023;-34
2024/03/18 12:20:30;;;;;;;11.38;8.38;;;16.20;78.90;;;;;;4975645;28;20487;-35
2024/03/18 12:22:58;;;;;;;10.18;7.30;;;16.30;79.00;;;;;;4978135;28;20027;-34
2024/03/18 12:31:01;;;;;;;10.15;7.25;;;16.40;79.60;;;;;;4970175;28;20018;-36
2024/03/18 12:33:34;;;;;;;10.95;7.93;;;16.40;79.00;;;;;;4972119;28;20042;-35
2024/03/18 12:36:04;;;;;;;9.95;7.65;;;16.40;79.00;;;;;;4967621;28;20018;-32
2024/03/18 12:38:40;;;;;;;10.07;7.90;;;16.40;79.00;;;;;;4973770;28;20074;-35
2024/03/18 12:41:09;;;;;;;10.55;7.20;;;16.50;79.10;;;;;;4978628;28;20030;-32
2024/03/18 12:43:35;;;;;;;10.82;7.20;;;16.50;79.00;;;;;;4972104;28;20035;-35
2024/03/18 12:46:01;;;;;;;10.60;7.60;;;16.50;78.90;;;;;;4968586;28;20026;-36
2024/03/18 12:48:28;;;;;;;10.50;7.43;;;16.60;78.90;;;;;;4972006;28;20030;-33
2024/03/18 12:50:55;;;;;;;10.57;7.65;;;16.60;78.90;;;;;;4976759;28;20051;-37
2024/03/18 12:53:21;;;;;;;11.90;7.60;;;16.70;79.00;;;;;;4968972;28;20031;-31